Time;durP1;ratioP1;P1;durP2;ratioP2;P2;SDS_P1;SDS_P2;PMS_P1;PMS_P2;Temp;Humidity;BMP_temperature;BMP_pressure;BME280_temperature;BME280_humidity;BME280_pressure;Samples;Min_cycle;Max_cycle;Signal;HPM_P1;HPM_P2
2022/06/10 00:01:59;;;;;;;10.77;2.65;;;12.30;99.90;;;;;;5055980;28;20041;-86
2022/06/10 00:04:24;;;;;;;8.90;2.58;;;12.30;99.90;;;;;;5055435;28;20048;-86
2022/06/10 00:06:50;;;;;;;11.68;3.00;;;12.30;99.90;;;;;;5056030;28;20049;-86
2022/06/10 00:09:16;;;;;;;7.95;2.72;;;12.20;99.90;;;;;;5055813;28;20472;-86
2022/06/10 00:11:42;;;;;;;6.63;2.35;;;12.20;99.90;;;;;;5054793;28;20067;-87
2022/06/10 00:14:08;;;;;;;8.88;2.65;;;12.20;99.90;;;;;;5056975;28;20045;-87
2022/06/10 00:16:34;;;;;;;17.10;3.22;;;12.20;99.90;;;;;;5056835;28;20393;-86
2022/06/10 00:19:00;;;;;;;9.93;2.70;;;12.20;99.90;;;;;;5055357;28;20041;-87
2022/06/10 00:21:26;;;;;;;10.52;2.67;;;12.20;99.90;;;;;;5056771;28;20044;-87
2022/06/10 00:23:52;;;;;;;12.23;2.47;;;12.20;99.90;;;;;;5056437;28;20548;-87
2022/06/10 00:26:18;;;;;;;8.48;2.78;;;12.20;99.90;;;;;;5054748;28;20132;-86
2022/06/10 00:28:45;;;;;;;11.93;2.80;;;12.10;99.90;;;;;;5072073;28;20052;-87
2022/06/10 00:31:12;;;;;;;8.13;2.30;;;12.20;99.90;;;;;;5056814;28;20052;-87
2022/06/10 00:33:40;;;;;;;14.20;3.30;;;12.10;99.90;;;;;;5055641;28;20120;-87
2022/06/10 00:36:07;;;;;;;8.15;2.38;;;12.10;99.90;;;;;;5056762;28;20037;-87
2022/06/10 00:38:33;;;;;;;13.52;2.70;;;12.10;99.90;;;;;;5055255;28;20100;-88
2022/06/10 00:41:00;;;;;;;10.50;2.85;;;12.10;99.90;;;;;;5056141;28;20040;-87
2022/06/10 00:43:30;;;;;;;8.68;2.42;;;12.10;99.90;;;;;;5072079;28;20068;-87
2022/06/10 00:46:16;;;;;;;16.40;3.78;;;12.10;99.90;;;;;;5055295;28;20045;-87
2022/06/10 00:48:55;;;;;;;14.10;2.88;;;12.10;99.90;;;;;;5037573;28;20110;-87
2022/06/10 00:52:05;;;;;;;13.02;3.75;;;12.10;99.90;;;;;;5056249;28;20123;-87
2022/06/10 00:54:31;;;;;;;11.30;2.80;;;12.00;99.90;;;;;;4996997;28;20276;-86
2022/06/10 00:57:13;;;;;;;11.27;2.88;;;12.00;99.90;;;;;;5025132;28;20120;-87
2022/06/10 01:00:10;;;;;;;8.93;2.80;;;12.00;99.90;;;;;;5020922;28;20110;-87
2022/06/10 01:02:48;;;;;;;15.07;3.03;;;12.00;99.90;;;;;;5054263;28;20056;-87
2022/06/10 01:05:18;;;;;;;13.32;2.97;;;11.90;99.90;;;;;;5054797;28;20045;-87
2022/06/10 01:07:53;;;;;;;11.05;3.00;;;11.90;99.90;;;;;;5087182;28;20120;-88
2022/06/10 01:10:23;;;;;;;;;;;11.80;99.90;;;;;;5058408;28;20462;-87
2022/06/10 01:12:55;;;;;;;9.60;2.30;;;10.90;99.90;;;;;;5056664;28;19924;-87
2022/06/10 01:15:48;;;;;;;5.88;2.47;;;11.80;99.90;;;;;;5066619;28;20559;-87
2022/06/10 01:18:35;;;;;;;13.80;2.97;;;11.80;99.90;;;;;;5054153;28;20053;-86
2022/06/10 01:21:25;;;;;;;17.15;3.08;;;11.80;99.90;;;;;;5054495;28;20447;-86
2022/06/10 01:23:54;;;;;;;15.05;4.15;;;11.70;99.90;;;;;;5054799;28;20055;-87
2022/06/10 01:29:28;;;;;;;8.52;2.20;;;11.70;99.90;;;;;;5054987;28;20049;-87
2022/06/10 01:32:01;;;;;;;10.00;2.80;;;11.70;99.90;;;;;;5053905;28;20041;-86
2022/06/10 01:34:33;;;;;;;9.90;3.22;;;11.70;99.90;;;;;;5054212;28;20087;-87
2022/06/10 01:37:10;;;;;;;10.90;2.78;;;11.60;99.90;;;;;;5053235;28;20504;-86
2022/06/10 01:39:55;;;;;;;8.88;2.88;;;11.70;99.90;;;;;;5054165;28;20500;-87
2022/06/10 01:42:37;;;;;;;9.75;2.83;;;11.20;99.90;;;;;;5069703;28;20630;-87
2022/06/10 01:45:35;;;;;;;12.73;3.10;;;11.60;99.90;;;;;;5063798;28;20128;-86
2022/06/10 01:48:07;;;;;;;7.72;2.40;;;11.60;99.90;;;;;;5036644;28;20063;-86
2022/06/10 01:50:47;;;;;;;12.50;3.45;;;11.60;99.90;;;;;;5066847;28;20052;-87
2022/06/10 01:53:44;;;;;;;7.65;2.63;;;11.60;99.90;;;;;;5090917;28;20044;-87
2022/06/10 01:56:21;;;;;;;10.15;2.97;;;11.60;99.90;;;;;;5056613;28;20073;-87
2022/06/10 01:59:10;;;;;;;9.98;3.35;;;11.50;99.90;;;;;;5053950;28;20198;-87
2022/06/10 02:01:40;;;;;;;8.15;2.88;;;11.50;99.90;;;;;;5047412;28;20492;-87
2022/06/10 02:04:26;;;;;;;8.52;2.97;;;11.50;99.90;;;;;;5052943;28;20547;-86
2022/06/10 02:06:58;;;;;;;12.52;3.47;;;11.50;99.90;;;;;;5053660;28;20037;-87
2022/06/10 02:09:39;;;;;;;14.43;3.40;;;11.50;99.90;;;;;;5053714;28;20488;-86
2022/06/10 02:12:23;;;;;;;8.13;3.17;;;11.50;99.90;;;;;;5052433;28;20049;-87
2022/06/10 02:14:57;;;;;;;9.38;3.55;;;11.60;99.90;;;;;;5053685;28;20140;-86
2022/06/10 02:17:26;;;;;;;14.38;3.45;;;11.60;99.90;;;;;;5053497;28;20507;-87
2022/06/10 02:19:57;;;;;;;12.90;3.78;;;11.60;99.90;;;;;;5053655;28;20420;-87
2022/06/10 02:22:37;;;;;;;11.35;3.63;;;11.50;99.90;;;;;;5053210;28;20133;-86
2022/06/10 02:25:36;;;;;;;16.13;3.50;;;11.50;99.90;;;;;;5060655;28;20078;-86
2022/06/10 02:28:08;;;;;;;9.35;3.10;;;11.50;99.90;;;;;;5071212;28;20059;-86
2022/06/10 02:30:49;;;;;;;10.85;3.55;;;11.50;99.90;;;;;;5064037;28;20057;-85
2022/06/10 02:33:16;;;;;;;11.85;3.38;;;11.50;99.90;;;;;;5053289;28;20553;-86
2022/06/10 02:36:29;;;;;;;6.75;2.95;;;11.50;99.90;;;;;;5054487;28;20060;-86
2022/06/10 02:39:01;;;;;;;11.10;3.45;;;11.50;99.90;;;;;;5048086;28;20119;-86
2022/06/10 02:41:50;;;;;;;12.18;4.07;;;11.50;99.90;;;;;;5053670;28;20044;-85
2022/06/10 02:44:44;;;;;;;10.70;3.30;;;11.40;99.90;;;;;;5053236;28;20396;-85
2022/06/10 02:47:26;;;;;;;15.85;3.10;;;11.50;99.90;;;;;;5068873;28;20041;-86
2022/06/10 02:49:53;;;;;;;10.23;3.00;;;11.40;99.90;;;;;;5052825;28;20049;-86
2022/06/10 02:52:20;;;;;;;12.68;3.90;;;11.40;99.90;;;;;;5052890;28;20124;-86
2022/06/10 02:54:47;;;;;;;11.52;3.72;;;11.30;99.90;;;;;;5053300;28;20045;-85
2022/06/10 02:57:20;;;;;;;8.55;3.40;;;11.30;99.90;;;;;;5069340;28;20443;-86
2022/06/10 03:03:00;;;;;;;9.77;3.70;;;11.30;99.90;;;;;;5052080;28;20124;-86
2022/06/10 03:05:39;;;;;;;15.07;3.58;;;11.40;99.90;;;;;;5052515;28;20045;-86
2022/06/10 03:08:29;;;;;;;10.10;3.58;;;11.30;99.90;;;;;;5053255;28;20045;-86
2022/06/10 03:11:08;;;;;;;10.93;3.90;;;11.30;99.90;;;;;;5054379;28;20048;-85
2022/06/10 03:14:16;;;;;;;11.05;3.22;;;11.30;99.90;;;;;;5072543;28;20060;-85
2022/06/10 03:16:56;;;;;;;9.55;3.35;;;11.30;99.90;;;;;;5055636;28;20484;-85
2022/06/10 03:19:22;;;;;;;12.85;3.15;;;11.30;99.90;;;;;;5053357;28;20067;-86
2022/06/10 03:22:20;;;;;;;11.40;3.20;;;11.30;99.90;;;;;;5051732;28;20048;-86
2022/06/10 03:25:21;;;;;;;13.13;3.10;;;11.30;99.90;;;;;;5052568;28;20370;-85
2022/06/10 03:28:04;;;;;;;10.93;3.22;;;11.30;99.90;;;;;;5052274;28;20485;-85
2022/06/10 03:30:49;;;;;;;8.60;3.53;;;11.40;99.90;;;;;;5059061;28;20556;-85
2022/06/10 03:33:25;;;;;;;10.10;3.15;;;11.30;99.90;;;;;;5053020;28;20074;-86
2022/06/10 03:36:04;;;;;;;15.02;3.60;;;11.30;99.90;;;;;;5067717;28;20041;-85
2022/06/10 03:38:32;;;;;;;10.55;3.58;;;11.30;99.90;;;;;;5053291;28;20040;-86
2022/06/10 03:41:01;;;;;;;12.55;2.88;;;11.30;99.90;;;;;;5053431;28;20095;-85
2022/06/10 03:43:31;;;;;;;14.50;4.20;;;11.30;99.90;;;;;;5052582;28;20503;-86
2022/06/10 03:46:00;;;;;;;9.23;3.00;;;11.30;99.90;;;;;;5068673;28;20481;-85
2022/06/10 03:48:29;;;;;;;14.98;3.05;;;11.40;99.90;;;;;;5035395;28;20084;-86
2022/06/10 03:50:55;;;;;;;6.47;2.65;;;11.40;99.90;;;;;;5068056;28;20094;-86
2022/06/10 03:53:24;;;;;;;11.38;3.00;;;11.40;99.90;;;;;;5052214;28;20088;-87
2022/06/10 03:55:50;;;;;;;12.48;3.35;;;11.40;99.90;;;;;;5053504;28;20045;-86
2022/06/10 03:58:17;;;;;;;10.98;3.15;;;11.50;99.90;;;;;;5052669;28;20036;-86
2022/06/10 04:00:47;;;;;;;10.30;2.78;;;11.50;99.90;;;;;;5051888;28;20083;-85
2022/06/10 04:03:13;;;;;;;12.13;2.72;;;11.50;99.90;;;;;;5052264;28;20463;-86
2022/06/10 04:05:39;;;;;;;13.75;3.17;;;11.60;99.90;;;;;;5067584;28;20048;-87
2022/06/10 04:08:06;;;;;;;20.25;3.53;;;11.60;99.90;;;;;;5051571;28;20045;-85
2022/06/10 04:10:32;;;;;;;14.25;2.95;;;11.60;99.90;;;;;;5034950;28;20060;-86
2022/06/10 04:12:58;;;;;;;15.98;3.97;;;11.60;99.90;;;;;;5051352;28;20067;-86
2022/06/10 04:15:27;;;;;;;12.52;2.97;;;11.70;99.90;;;;;;5053709;28;20037;-87
2022/06/10 04:17:54;;;;;;;13.15;3.05;;;11.80;99.90;;;;;;5067866;28;20040;-87
2022/06/10 04:20:35;;;;;;;13.52;3.53;;;11.90;99.90;;;;;;5051781;28;20045;-87
2022/06/10 04:23:05;;;;;;;10.48;2.63;;;11.90;99.90;;;;;;5069350;28;20112;-86
2022/06/10 04:25:36;;;;;;;16.02;3.53;;;12.10;99.90;;;;;;5064420;28;20044;-89
2022/06/10 04:28:02;;;;;;;12.27;3.22;;;12.10;99.90;;;;;;5051954;28;20123;-89
2022/06/10 04:30:50;;;;;;;12.95;3.05;;;12.30;99.90;;;;;;5053178;28;20396;-86
2022/06/10 04:33:16;;;;;;;15.30;3.55;;;12.40;99.90;;;;;;5067554;28;20045;-87
2022/06/10 04:35:44;;;;;;;14.60;3.85;;;12.60;99.90;;;;;;5051793;28;20045;-86
2022/06/10 04:38:13;;;;;;;12.43;2.80;;;12.70;99.90;;;;;;5051540;28;20045;-88
2022/06/10 04:40:41;;;;;;;19.75;5.65;;;12.80;99.90;;;;;;5051833;28;20068;-88
2022/06/10 04:43:07;;;;;;;10.95;2.75;;;12.90;99.90;;;;;;5074154;28;20383;-88
2022/06/10 04:45:46;;;;;;;9.25;2.35;;;12.90;99.90;;;;;;5071450;28;20132;-88
2022/06/10 04:48:12;;;;;;;13.95;3.97;;;13.00;99.90;;;;;;5058994;28;20048;-87
2022/06/10 04:50:40;;;;;;;13.57;3.63;;;13.00;99.90;;;;;;5060975;28;20116;-87
2022/06/10 04:53:06;;;;;;;12.98;3.70;;;13.00;99.90;;;;;;5071113;28;20626;-87
2022/06/10 04:55:32;;;;;;;17.42;3.85;;;13.00;99.90;;;;;;5055133;28;20442;-87
2022/06/10 04:57:58;;;;;;;16.20;3.15;;;13.10;99.90;;;;;;5055099;28;20123;-86
2022/06/10 05:00:30;;;;;;;11.65;2.92;;;13.10;99.90;;;;;;5054068;28;20076;-88
2022/06/10 05:02:56;;;;;;;9.05;2.55;;;13.10;99.90;;;;;;5054985;28;20045;-87
2022/06/10 05:05:23;;;;;;;15.85;3.65;;;13.20;99.90;;;;;;5054413;28;20049;-87
2022/06/10 05:07:49;;;;;;;13.82;3.53;;;13.10;99.90;;;;;;5054080;28;20045;-87
2022/06/10 05:10:16;;;;;;;14.32;2.72;;;13.20;99.90;;;;;;5052872;28;20063;-87
2022/06/10 05:12:44;;;;;;;14.23;3.53;;;13.20;99.90;;;;;;5074599;28;20392;-88
2022/06/10 05:15:12;;;;;;;7.75;2.40;;;13.20;99.90;;;;;;5061283;28;20120;-87
2022/06/10 05:17:38;;;;;;;12.73;3.05;;;13.20;99.90;;;;;;5055811;28;20063;-87
2022/06/10 05:20:05;;;;;;;17.50;3.22;;;13.30;99.90;;;;;;5049792;28;20484;-88
2022/06/10 05:22:31;;;;;;;9.98;2.42;;;13.30;99.90;;;;;;5075528;28;20476;-89
2022/06/10 05:24:56;;;;;;;16.58;3.38;;;13.40;99.90;;;;;;5057138;28;20067;-88
2022/06/10 05:27:22;;;;;;;18.55;3.22;;;13.40;99.90;;;;;;5056181;28;20040;-87
2022/06/10 05:29:48;;;;;;;13.75;3.80;;;13.40;99.90;;;;;;5078227;28;20074;-90
2022/06/10 05:32:14;;;;;;;11.63;3.03;;;13.40;99.90;;;;;;5057739;28;20098;-89
2022/06/10 05:34:46;;;;;;;22.02;3.60;;;13.50;99.90;;;;;;5077696;28;20047;-88
2022/06/10 05:37:22;;;;;;;12.18;3.13;;;13.60;99.90;;;;;;5073828;28;20048;-86
2022/06/10 05:39:48;;;;;;;17.67;3.17;;;13.60;99.90;;;;;;5075120;28;20577;-87
2022/06/10 05:42:14;;;;;;;11.10;3.10;;;13.60;99.90;;;;;;5095864;28;20387;-87
2022/06/10 05:44:43;;;;;;;14.25;3.80;;;13.70;99.90;;;;;;5077417;28;20131;-89
2022/06/10 05:47:14;;;;;;;16.08;3.40;;;13.70;99.90;;;;;;5059724;28;20493;-89
2022/06/10 05:49:43;;;;;;;17.33;4.13;;;13.80;99.90;;;;;;5054362;28;20404;-89
2022/06/10 05:52:11;;;;;;;12.55;3.13;;;13.90;99.90;;;;;;5053840;28;20045;-89
2022/06/10 05:54:40;;;;;;;13.23;3.13;;;14.00;99.90;;;;;;5037462;28;20051;-88
2022/06/10 05:57:07;;;;;;;10.57;3.40;;;14.10;99.90;;;;;;5053160;28;20072;-90
2022/06/10 05:59:33;;;;;;;17.08;3.90;;;14.20;99.90;;;;;;5054418;28;20087;-88
2022/06/10 06:02:11;;;;;;;11.38;3.30;;;14.20;99.90;;;;;;5056759;28;20072;-91
2022/06/10 06:04:37;;;;;;;23.17;4.63;;;14.30;99.90;;;;;;5070362;28;20095;-88
2022/06/10 06:07:04;;;;;;;14.20;3.35;;;14.30;99.90;;;;;;5054358;28;20048;-89
2022/06/10 06:09:31;;;;;;;15.82;3.90;;;14.30;99.90;;;;;;5055512;28;20055;-87
2022/06/10 06:11:57;;;;;;;17.23;4.15;;;14.40;99.90;;;;;;5053612;28;20053;-88
2022/06/10 06:14:26;;;;;;;16.38;4.47;;;14.40;99.90;;;;;;5055082;28;20049;-93
2022/06/10 06:16:58;;;;;;;16.70;4.07;;;14.40;99.90;;;;;;5065309;28;20056;-94
2022/06/10 06:19:25;;;;;;;15.85;3.70;;;14.50;99.90;;;;;;5072113;28;20048;-86
2022/06/10 06:22:09;;;;;;;16.63;3.75;;;14.40;99.90;;;;;;5084621;28;20037;-88
2022/06/10 06:24:36;;;;;;;13.25;3.78;;;14.50;99.90;;;;;;5053194;28;20041;-88
2022/06/10 06:27:05;;;;;;;18.77;3.92;;;14.60;99.90;;;;;;5036533;28;20401;-88
2022/06/10 06:29:50;;;;;;;19.33;4.05;;;14.70;99.90;;;;;;5042966;28;20052;-91
2022/06/10 06:32:16;;;;;;;18.45;4.20;;;14.80;99.90;;;;;;5055453;28;20131;-89
2022/06/10 06:34:44;;;;;;;17.80;4.18;;;14.90;99.90;;;;;;5059452;28;20131;-89
2022/06/10 06:37:14;;;;;;;16.58;3.65;;;14.90;99.90;;;;;;5067995;28;20061;-89
2022/06/10 06:39:43;;;;;;;17.10;3.70;;;13.90;99.90;;;;;;5062804;28;20101;-87
2022/06/10 06:42:47;;;;;;;13.52;3.40;;;15.00;99.90;;;;;;5071262;28;20044;-90
2022/06/10 06:45:15;;;;;;;13.55;3.22;;;15.20;99.90;;;;;;5033587;28;20048;-87
2022/06/10 06:47:41;;;;;;;15.80;3.25;;;15.10;99.90;;;;;;5068950;28;20045;-90
2022/06/10 06:50:18;;;;;;;12.25;3.47;;;15.10;99.90;;;;;;5052874;28;20098;-91
2022/06/10 06:52:53;;;;;;;15.73;3.50;;;15.30;99.90;;;;;;5068351;28;20097;-86
2022/06/10 06:55:22;;;;;;;22.88;3.92;;;15.10;99.90;;;;;;5072491;28;20056;-88
2022/06/10 06:57:49;;;;;;;18.48;4.53;;;15.20;99.90;;;;;;5053085;28;20480;-90
2022/06/10 07:00:16;;;;;;;16.50;4.13;;;15.20;99.90;;;;;;5035391;28;20055;-87
2022/06/10 07:02:42;;;;;;;11.73;4.53;;;15.30;99.90;;;;;;5052600;28;20404;-90
2022/06/10 07:05:10;;;;;;;10.20;3.97;;;15.40;99.90;;;;;;5052760;28;20052;-89
2022/06/10 07:07:44;;;;;;;18.88;4.65;;;15.30;99.90;;;;;;5052350;28;20127;-91
2022/06/10 07:10:21;;;;;;;15.43;4.30;;;15.30;99.90;;;;;;5051774;28;20480;-90
2022/06/10 07:12:47;;;;;;;12.13;4.32;;;15.40;99.90;;;;;;5060985;28;20036;-88
2022/06/10 07:15:17;;;;;;;15.32;4.47;;;15.40;99.90;;;;;;5071743;28;20041;-88
2022/06/10 07:17:43;;;;;;;13.20;4.32;;;15.50;99.90;;;;;;5088727;28;20048;-92
2022/06/10 07:20:25;;;;;;;15.65;5.15;;;15.60;99.90;;;;;;5052259;28;20387;-90
2022/06/10 07:22:50;;;;;;;16.83;4.60;;;15.60;99.90;;;;;;5084618;28;20048;-88
2022/06/10 07:25:24;;;;;;;13.90;4.47;;;15.70;99.90;;;;;;5054468;28;20044;-91
2022/06/10 07:27:52;;;;;;;14.00;4.45;;;15.80;99.90;;;;;;5071607;28;20482;-86
2022/06/10 07:30:19;;;;;;;14.43;4.72;;;15.80;99.90;;;;;;5056268;28;20041;-89
2022/06/10 07:32:46;;;;;;;17.52;4.60;;;15.80;99.90;;;;;;5072262;28;20049;-88
2022/06/10 07:35:13;;;;;;;12.50;3.95;;;15.80;99.90;;;;;;5085104;28;20037;-91
2022/06/10 07:37:40;;;;;;;16.92;4.55;;;15.80;99.90;;;;;;5053756;28;20037;-88
2022/06/10 07:40:07;;;;;;;12.73;4.25;;;15.80;99.90;;;;;;5051640;28;20079;-91
2022/06/10 07:42:35;;;;;;;10.48;4.05;;;15.90;99.90;;;;;;5051594;28;20041;-89
2022/06/10 07:45:02;;;;;;;13.10;4.53;;;15.90;99.90;;;;;;5036977;28;20077;-88
2022/06/10 07:47:29;;;;;;;17.40;5.00;;;15.90;99.90;;;;;;5075114;28;20106;-90
2022/06/10 07:49:54;;;;;;;17.40;4.20;;;15.90;99.90;;;;;;5054953;28;20437;-88
2022/06/10 07:52:20;;;;;;;17.00;5.18;;;15.90;99.90;;;;;;5044882;28;20049;-88
2022/06/10 07:54:46;;;;;;;17.67;4.65;;;16.00;99.90;;;;;;5073278;28;20045;-85
2022/06/10 07:57:12;;;;;;;15.45;5.13;;;16.10;99.90;;;;;;5075827;28;20412;-88
2022/06/10 07:59:42;;;;;;;22.50;5.78;;;16.10;99.90;;;;;;5066285;28;20157;-88
2022/06/10 08:02:11;;;;;;;18.38;5.10;;;16.20;99.90;;;;;;5063888;28;20060;-88
2022/06/10 08:04:37;;;;;;;20.05;4.95;;;16.30;99.90;;;;;;5070779;28;20054;-88
2022/06/10 08:07:06;;;;;;;15.85;4.03;;;16.30;99.90;;;;;;5066395;28;20123;-91
2022/06/10 08:09:32;;;;;;;24.77;4.88;;;16.40;99.90;;;;;;5052016;28;20136;-91
2022/06/10 08:12:01;;;;;;;11.23;4.60;;;16.50;99.90;;;;;;5058488;28;20061;-89
2022/06/10 08:14:27;;;;;;;19.75;4.20;;;16.50;99.90;;;;;;5073382;28;20048;-84
2022/06/10 08:16:54;;;;;;;13.45;3.65;;;16.60;99.90;;;;;;5068811;28;20473;-88
2022/06/10 08:19:20;;;;;;;14.43;5.03;;;16.60;99.90;;;;;;5069116;28;20040;-87
2022/06/10 08:24:31;;;;;;;18.40;4.85;;;16.70;99.90;;;;;;5091451;28;20044;-89
2022/06/10 08:26:57;;;;;;;16.42;4.65;;;16.60;99.90;;;;;;5051128;28;20492;-88
2022/06/10 08:29:22;;;;;;;19.15;4.53;;;16.60;99.90;;;;;;5056584;28;20507;-86
2022/06/10 08:31:49;;;;;;;14.57;4.85;;;16.60;99.90;;;;;;5064177;28;20033;-89
2022/06/10 08:34:15;;;;;;;19.73;4.45;;;16.60;99.90;;;;;;5075645;28;20044;-87
2022/06/10 08:36:42;;;;;;;20.92;4.90;;;16.60;99.90;;;;;;5071193;28;20045;-92
2022/06/10 08:39:08;;;;;;;16.95;4.80;;;16.60;99.90;;;;;;5074181;28;20032;-88
2022/06/10 08:41:56;;;;;;;17.38;4.90;;;16.60;99.90;;;;;;5055457;28;20132;-90
2022/06/10 08:44:24;;;;;;;17.60;4.75;;;16.60;99.90;;;;;;5073163;28;20044;-90
2022/06/10 08:47:08;;;;;;;17.08;4.75;;;16.70;99.90;;;;;;5074088;28;20037;-89
2022/06/10 08:49:57;;;;;;;25.58;4.45;;;16.70;99.90;;;;;;5061590;28;20056;-88
2022/06/10 08:52:51;;;;;;;20.52;5.18;;;16.80;99.90;;;;;;5077168;28;20119;-88
2022/06/10 08:55:38;;;;;;;18.38;4.43;;;16.80;99.90;;;;;;5056596;28;20049;-90
2022/06/10 08:58:21;;;;;;;17.13;4.47;;;16.90;99.90;;;;;;5055187;28;20052;-86
2022/06/10 09:00:48;;;;;;;10.35;3.28;;;17.00;99.90;;;;;;5055545;28;20416;-91
2022/06/10 09:03:23;;;;;;;16.83;4.35;;;17.00;99.90;;;;;;5074066;28;20048;-88
2022/06/10 09:05:58;;;;;;;13.10;3.70;;;17.10;99.90;;;;;;5056491;28;20045;-88
2022/06/10 09:08:34;;;;;;;17.42;4.10;;;17.10;99.90;;;;;;5055265;28;20105;-93
2022/06/10 09:11:37;;;;;;;14.25;4.88;;;17.10;99.90;;;;;;5055046;28;20515;-91
2022/06/10 09:14:36;;;;;;;15.43;4.00;;;17.10;99.90;;;;;;5077967;28;20041;-88
2022/06/10 09:17:24;;;;;;;20.40;5.75;;;17.00;99.90;;;;;;5046473;28;20096;-88
2022/06/10 09:20:09;;;;;;;12.43;3.95;;;17.00;99.90;;;;;;5057950;28;20098;-89
2022/06/10 09:22:56;;;;;;;14.90;5.18;;;17.00;99.90;;;;;;5062720;28;20040;-88
2022/06/10 09:25:44;;;;;;;7.63;3.15;;;17.10;99.90;;;;;;5071506;28;20107;-91
2022/06/10 09:28:13;;;;;;;18.23;4.32;;;17.10;99.90;;;;;;5055934;28;20055;-91
2022/06/10 09:31:02;;;;;;;16.05;4.43;;;17.10;99.90;;;;;;5054884;28;20395;-92
2022/06/10 09:33:56;;;;;;;14.27;3.95;;;17.10;99.90;;;;;;5075632;28;20131;-88
2022/06/10 09:36:47;;;;;;;18.60;5.25;;;17.10;99.90;;;;;;5072819;28;20548;-88
2022/06/10 09:42:17;;;;;;;16.05;5.57;;;17.10;99.90;;;;;;5077622;28;20067;-88
2022/06/10 09:45:00;;;;;;;24.63;5.97;;;17.20;99.90;;;;;;5073986;28;20208;-91
2022/06/10 09:48:04;;;;;;;20.08;6.70;;;17.20;99.90;;;;;;5055461;28;20148;-88
2022/06/10 09:50:52;;;;;;;22.83;6.03;;;17.30;99.90;;;;;;5060675;28;20051;-88
2022/06/10 09:53:23;;;;;;;17.95;5.85;;;17.30;99.90;;;;;;5074505;28;20044;-93
2022/06/10 09:56:07;;;;;;;22.05;6.00;;;17.30;99.90;;;;;;5054057;28;20049;-89
2022/06/10 09:58:51;;;;;;;18.48;5.55;;;17.30;99.90;;;;;;5071724;28;20037;-90
2022/06/10 10:02:07;;;;;;;22.45;6.22;;;17.40;99.90;;;;;;5055092;28;20049;-88
2022/06/10 10:04:49;;;;;;;19.63;5.88;;;17.50;99.90;;;;;;5031268;28;20447;-91
2022/06/10 10:07:33;;;;;;;21.35;5.80;;;17.60;99.90;;;;;;5068713;28;20044;-90
2022/06/10 10:10:17;;;;;;;17.38;5.60;;;17.70;99.90;;;;;;5073526;28;20041;-93
2022/06/10 10:12:46;;;;;;;17.65;5.30;;;17.80;99.90;;;;;;5087445;28;20109;-90
2022/06/10 10:15:25;;;;;;;15.95;5.25;;;17.80;99.90;;;;;;5095147;28;20052;-88
2022/06/10 10:18:25;;;;;;;26.48;5.13;;;17.90;99.90;;;;;;5066090;28;20448;-92
2022/06/10 10:21:14;;;;;;;16.40;4.90;;;17.80;99.90;;;;;;5053182;28;20112;-91
2022/06/10 10:23:46;;;;;;;12.65;4.88;;;17.90;99.90;;;;;;5055350;28;20053;-88
2022/06/10 10:26:27;;;;;;;18.13;4.50;;;17.80;99.90;;;;;;5054944;28;20166;-91
2022/06/10 10:29:11;;;;;;;13.60;4.50;;;17.80;99.90;;;;;;5053505;28;20076;-88
2022/06/10 10:31:46;;;;;;;16.35;4.68;;;17.80;99.90;;;;;;5053073;28;20041;-91
2022/06/10 10:34:20;;;;;;;16.40;4.25;;;17.90;99.90;;;;;;5053385;28;20084;-89
2022/06/10 10:36:48;;;;;;;10.13;3.63;;;17.90;99.90;;;;;;5070661;28;20101;-94
2022/06/10 10:39:24;;;;;;;13.60;3.50;;;18.00;99.90;;;;;;5052373;28;20055;-87
2022/06/10 10:41:53;;;;;;;10.05;3.72;;;18.00;99.90;;;;;;5053684;28;20055;-89
2022/06/10 10:44:30;;;;;;;10.65;2.90;;;18.10;99.90;;;;;;5069341;28;20045;-91
2022/06/10 10:47:11;;;;;;;12.05;3.42;;;18.10;99.90;;;;;;5053175;28;20158;-91
2022/06/10 10:49:51;;;;;;;8.35;3.08;;;18.10;99.90;;;;;;5053461;28;20553;-92
2022/06/10 10:52:22;;;;;;;11.07;3.28;;;18.10;99.90;;;;;;5060010;28;20094;-92
2022/06/10 10:54:54;;;;;;;10.68;3.50;;;18.10;99.90;;;;;;5075754;28;20108;-91
2022/06/10 10:57:39;;;;;;;10.05;3.38;;;18.10;99.90;;;;;;5068550;28;20493;-94
2022/06/10 11:00:31;;;;;;;10.52;3.70;;;18.20;99.90;;;;;;5051706;28;20048;-87
2022/06/10 11:03:01;;;;;;;8.05;3.38;;;18.30;99.90;;;;;;5053961;28;20086;-90
2022/06/10 11:05:32;;;;;;;10.93;3.92;;;18.50;99.90;;;;;;5053489;28;20044;-93
2022/06/10 11:08:16;;;;;;;19.40;4.57;;;18.70;99.90;;;;;;5054500;28;20381;-86
2022/06/10 11:11:10;;;;;;;12.07;4.22;;;18.90;99.90;;;;;;5053412;28;20060;-94
2022/06/10 11:14:01;;;;;;;14.88;4.32;;;19.00;99.90;;;;;;5064576;28;20051;-90
2022/06/10 11:16:38;;;;;;;11.15;3.35;;;19.10;99.90;;;;;;5040834;28;20053;-88
2022/06/10 11:19:23;;;;;;;10.73;3.28;;;19.00;99.90;;;;;;5053694;28;20045;-89
2022/06/10 11:22:01;;;;;;;15.27;3.85;;;19.00;99.90;;;;;;5052462;28;20041;-87
2022/06/10 11:24:40;;;;;;;11.43;3.38;;;19.10;99.90;;;;;;5070135;28;20059;-90
2022/06/10 11:27:37;;;;;;;12.13;3.65;;;19.20;99.90;;;;;;5064528;28;20045;-91
2022/06/10 11:30:13;;;;;;;15.98;4.38;;;19.30;99.90;;;;;;5065822;28;20052;-90
2022/06/10 11:32:47;;;;;;;10.50;3.50;;;19.30;99.90;;;;;;5073185;28;20048;-88
2022/06/10 11:35:58;;;;;;;15.25;4.00;;;19.40;99.90;;;;;;5065658;28;20045;-88
2022/06/10 11:38:27;;;;;;;10.55;3.85;;;19.40;99.90;;;;;;5073435;28;20602;-89
2022/06/10 11:41:14;;;;;;;11.23;3.88;;;19.60;99.90;;;;;;5072004;28;20055;-87
2022/06/10 11:43:48;;;;;;;11.93;4.57;;;19.30;99.90;;;;;;5072511;28;20399;-90
2022/06/10 11:46:35;;;;;;;13.35;4.72;;;19.80;99.90;;;;;;5036782;28;20080;-90
2022/06/10 11:49:21;;;;;;;14.38;4.20;;;19.90;99.90;;;;;;5051157;28;20051;-89
2022/06/10 11:52:19;;;;;;;;;;;;;;;;;;;;;
2022/06/10 11:55:16;;;;;;;14.32;4.15;;;19.90;99.90;;;;;;5051356;28;20385;-88
2022/06/10 12:00:53;;;;;;;25.05;5.03;;;19.80;99.90;;;;;;5026037;28;20052;-87
2022/06/10 12:03:28;;;;;;;15.02;5.30;;;19.60;99.90;;;;;;5070009;28;20444;-89
2022/06/10 12:06:18;;;;;;;18.15;5.20;;;19.50;99.90;;;;;;5077181;28;20044;-86
2022/06/10 12:08:53;;;;;;;11.30;4.43;;;19.40;99.90;;;;;;5066732;28;20056;-91
2022/06/10 12:11:37;;;;;;;11.57;4.32;;;19.30;99.90;;;;;;5056285;28;20052;-89
2022/06/10 12:14:23;;;;;;;9.38;4.82;;;19.20;99.90;;;;;;5057716;28;20053;-86
2022/06/10 12:17:09;;;;;;;9.48;4.47;;;19.30;99.90;;;;;;5056100;28;20119;-96
2022/06/10 12:19:58;;;;;;;11.40;4.40;;;19.50;99.90;;;;;;5067771;28;20152;-96
2022/06/10 12:22:32;;;;;;;18.33;4.93;;;19.60;99.90;;;;;;5058411;28;20056;-92
2022/06/10 12:24:58;;;;;;;17.27;5.15;;;19.70;99.90;;;;;;5057301;28;20049;-93
2022/06/10 12:27:32;;;;;;;14.27;4.88;;;19.80;99.90;;;;;;5078211;28;20110;-92
2022/06/10 12:30:06;;;;;;;13.30;3.85;;;19.80;99.90;;;;;;5060410;28;20059;-90
2022/06/10 12:32:47;;;;;;;14.75;4.45;;;19.80;99.90;;;;;;5078612;28;20048;-91
2022/06/10 12:35:25;;;;;;;17.20;5.05;;;19.80;99.90;;;;;;5076702;28;20044;-89
2022/06/10 12:37:56;;;;;;;12.63;4.05;;;19.90;99.90;;;;;;5072352;28;20044;-88
2022/06/10 12:40:31;;;;;;;11.68;3.13;;;19.90;99.90;;;;;;5056783;28;20072;-93
2022/06/10 12:43:00;;;;;;;7.68;2.85;;;20.00;99.90;;;;;;5056934;28;20037;-88
2022/06/10 12:46:26;;;;;;;7.90;2.45;;;20.10;99.90;;;;;;5075086;28;20127;-87
2022/06/10 12:48:52;;;;;;;7.80;2.25;;;20.10;99.90;;;;;;5033055;28;20116;-87
2022/06/10 12:51:43;;;;;;;7.70;2.40;;;20.00;99.90;;;;;;5069273;28;20141;-89
2022/06/10 12:54:41;;;;;;;9.27;2.38;;;20.10;99.90;;;;;;5055288;28;20404;-84
2022/06/10 12:57:36;;;;;;;8.57;2.25;;;20.10;99.90;;;;;;5033714;28;20131;-87
2022/06/10 13:00:20;;;;;;;6.95;1.88;;;20.10;99.90;;;;;;5054815;28;20041;-91
2022/06/10 13:02:51;;;;;;;6.55;2.10;;;20.10;99.90;;;;;;5058511;28;20047;-90
2022/06/10 13:05:19;;;;;;;11.60;2.35;;;20.20;99.90;;;;;;5075938;28;20444;-90
2022/06/10 13:07:47;;;;;;;5.18;1.98;;;20.30;99.90;;;;;;5068341;28;20507;-91
2022/06/10 13:10:29;;;;;;;7.45;2.03;;;20.40;99.90;;;;;;5072156;28;20060;-91
2022/06/10 13:13:09;;;;;;;10.55;1.65;;;20.50;99.90;;;;;;5057400;28;20045;-87
2022/06/10 13:15:35;;;;;;;5.07;1.50;;;20.40;99.90;;;;;;5055328;28;20056;-89
2022/06/10 13:18:18;;;;;;;5.63;2.08;;;20.30;99.90;;;;;;5072050;28;20049;-89
2022/06/10 13:20:47;;;;;;;6.38;1.42;;;20.20;99.90;;;;;;5066783;28;20127;-90
2022/06/10 13:23:29;;;;;;;7.07;2.17;;;20.10;99.90;;;;;;5076862;28;20048;-92
2022/06/10 13:26:04;;;;;;;5.95;1.60;;;20.10;99.90;;;;;;5047092;28;20088;-91
2022/06/10 13:28:35;;;;;;;9.23;1.90;;;20.20;99.90;;;;;;5071426;28;20033;-88
2022/06/10 13:31:10;;;;;;;5.45;1.75;;;20.20;99.90;;;;;;5082784;28;20045;-95
2022/06/10 13:33:36;;;;;;;6.00;1.77;;;21.00;99.90;;;;;;5076009;28;20051;-90
2022/06/10 13:36:02;;;;;;;7.82;1.58;;;20.40;99.90;;;;;;5062887;28;20404;-93
2022/06/10 13:38:35;;;;;;;5.78;1.60;;;20.80;99.90;;;;;;5056007;28;20045;-86